Blanchard Township, Maine
Current Conditions -  °F | °C
As of 10:53 PM on Thursday 18 Dec 2014 (Local Time) from KMLT Reporting Station
Overcast Overcast  
Wind Chill: -7°   Ceiling: 3200
Heat Index: -2°   Visibility: 10mi
Dew Point: -5°   Wind: 9mph
Humidity: 81%   Direction: 300°WNW
Pressure: 29.72"   Gusts: NA
Location:  45.3122°N, 69.5439°W
Report Text: KMLT 190353Z AUTO 30008KT 10SM OVC032 M02/M05 A2972 RMK AO2 SLP072 T10221050 $
Loading
Personal Weather Stations






























Interactive Weather Map New forecast layout! Learn more

10-Day Weather Forecast

Advertisements
Track Severe Weather on mobile